Time;durP1;ratioP1;P1;durP2;ratioP2;P2;SDS_P1;SDS_P2;PMS_P1;PMS_P2;Temp;Humidity;BMP_temperature;BMP_pressure;BME280_temperature;BME280_humidity;BME280_pressure;Samples;Min_cycle;Max_cycle;Signal;HPM_P1;HPM_P2
2023/04/02 15:31:25;;;;;;;;;;;16.00;99.60;;;;;;5071941;28;19943;-74
2023/04/02 15:34:01;;;;;;;;;;;16.10;99.60;;;;;;5056755;28;20267;-74
2023/04/02 15:36:41;;;;;;;;;;;16.00;99.60;;;;;;5073479;28;20289;-74
2023/04/02 15:39:22;;;;;;;;;;;16.00;99.60;;;;;;5057542;28;19916;-73
2023/04/02 15:42:07;;;;;;;;;;;16.00;99.60;;;;;;5062906;28;19916;-74
2023/04/02 15:44:34;;;;;;;;;;;16.00;99.60;;;;;;5062315;28;19908;-74
2023/04/02 15:47:04;;;;;;;;;;;16.00;99.60;;;;;;5054635;28;20314;-74
2023/04/02 15:49:31;;;;;;;;;;;16.00;99.60;;;;;;5048579;28;20367;-74
2023/04/02 15:52:16;;;;;;;;;;;16.00;99.60;;;;;;5075836;28;19908;-73
2023/04/02 15:54:48;;;;;;;;;;;15.90;99.60;;;;;;5075914;28;19909;-74
2023/04/02 15:57:18;;;;;;;;;;;16.00;99.60;;;;;;5057686;28;19916;-74
2023/04/02 15:59:51;;;;;;;;;;;15.90;99.60;;;;;;5075214;28;19920;-74
2023/04/02 16:02:17;;;;;;;;;;;15.90;99.60;;;;;;5074153;28;20346;-74
2023/04/02 16:04:47;;;;;;;;;;;15.90;99.60;;;;;;5073530;28;19957;-74
2023/04/02 16:07:19;;;;;;;;;;;15.90;99.60;;;;;;5073145;28;19913;-74
2023/04/02 16:09:48;;;;;;;;;;;15.90;99.60;;;;;;5074790;28;19965;-74
2023/04/02 16:12:16;;;;;;;;;;;15.80;99.60;;;;;;5056254;28;19971;-74
2023/04/02 16:14:46;;;;;;;;;;;15.90;99.60;;;;;;5074425;28;19908;-74
2023/04/02 16:17:22;;;;;;;;;;;15.90;99.60;;;;;;5070233;28;19912;-74
2023/04/02 16:19:50;;;;;;;;;;;15.90;99.60;;;;;;5074474;28;19912;-74
2023/04/02 16:22:22;;;;;;;;;;;15.80;99.60;;;;;;5072172;28;20296;-74
2023/04/02 16:24:49;;;;;;;;;;;15.80;99.60;;;;;;5071916;28;19936;-73
2023/04/02 16:27:36;;;;;;;;;;;15.90;99.60;;;;;;5051053;28;19917;-74
2023/04/02 16:30:03;;;;;;;;;;;15.80;99.60;;;;;;5067355;28;19935;-73
2023/04/02 16:32:43;;;;;;;;;;;15.80;99.60;;;;;;5061545;28;20285;-74
2023/04/02 16:35:19;;;;;;;;;;;15.80;99.60;;;;;;5039614;28;19924;-74
2023/04/02 16:37:47;;;;;;;;;;;15.80;99.60;;;;;;5060812;28;20302;-74
2023/04/02 16:40:26;;;;;;;;;;;15.80;99.60;;;;;;5052267;28;19920;-74
2023/04/02 16:43:02;;;;;;;;;;;15.80;99.60;;;;;;5049360;28;19913;-74
2023/04/02 16:45:30;;;;;;;;;;;15.80;99.60;;;;;;5066739;28;19925;-74
2023/04/02 16:48:04;;;;;;;;;;;15.80;99.60;;;;;;5047882;28;19936;-74
2023/04/02 16:50:49;;;;;;;;;;;15.80;99.60;;;;;;5053904;28;19931;-74
2023/04/02 16:53:36;;;;;;;;;;;15.80;99.60;;;;;;5051799;28;20003;-73
2023/04/02 16:56:06;;;;;;;;;;;15.80;99.60;;;;;;5054181;28;19948;-74
2023/04/02 16:58:42;;;;;;;;;;;15.80;99.60;;;;;;5053679;28;19913;-73
2023/04/02 17:01:12;;;;;;;;;;;15.80;99.60;;;;;;5040867;28;19922;-73
2023/04/02 17:03:38;;;;;;;;;;;15.80;99.60;;;;;;5068635;28;19983;-73
2023/04/02 17:06:06;;;;;;;;;;;15.80;99.60;;;;;;5058341;28;20033;-71
2023/04/02 17:08:37;;;;;;;;;;;15.90;99.60;;;;;;5050253;28;20386;-72
2023/04/02 17:11:07;;;;;;;;;;;15.80;99.60;;;;;;5051161;28;19960;-72
2023/04/02 17:13:41;;;;;;;;;;;15.80;99.60;;;;;;5054206;28;19916;-72
2023/04/02 17:16:26;;;;;;;;;;;15.80;99.60;;;;;;5041759;28;20317;-72
2023/04/02 17:18:53;;;;;;;;;;;15.80;99.70;;;;;;5072810;28;19920;-72
2023/04/02 17:21:21;;;;;;;;;;;15.80;99.70;;;;;;5042762;28;19929;-72
2023/04/02 17:23:49;;;;;;;;;;;15.80;99.70;;;;;;5051874;28;20439;-72
2023/04/02 17:26:16;;;;;;;;;;;15.80;99.70;;;;;;5064566;28;19918;-72
2023/04/02 17:28:42;;;;;;;;;;;15.80;99.70;;;;;;5042120;28;19948;-72
2023/04/02 17:31:29;;;;;;;;;;;15.80;99.60;;;;;;5081705;28;19927;-72
2023/04/02 17:33:56;;;;;;;;;;;15.80;99.60;;;;;;5068468;28;19966;-72
2023/04/02 17:36:31;;;;;;;;;;;15.80;99.60;;;;;;5053235;28;19913;-72
2023/04/02 17:39:16;;;;;;;;;;;15.70;99.60;;;;;;5052063;28;19921;-72
2023/04/02 17:41:45;;;;;;;;;;;15.70;99.60;;;;;;5042887;28;19917;-72
2023/04/02 17:44:30;;;;;;;;;;;15.70;99.60;;;;;;5053592;28;19909;-72
2023/04/02 17:47:00;;;;;;;;;;;15.70;99.60;;;;;;5053196;28;19909;-72
2023/04/02 17:49:33;;;;;;;;;;;15.70;99.60;;;;;;5053532;28;19920;-72
2023/04/02 17:52:01;;;;;;;;;;;15.70;99.60;;;;;;5053477;28;19962;-73
2023/04/02 17:54:30;;;;;;;;;;;15.70;99.60;;;;;;5085729;28;20049;-72
2023/04/02 17:57:12;;;;;;;;;;;15.60;99.60;;;;;;5053463;28;19912;-72
2023/04/02 17:59:55;;;;;;;;;;;15.60;99.60;;;;;;5053050;28;20007;-72
2023/04/02 18:02:29;;;;;;;;;;;15.60;99.60;;;;;;5052593;28;19928;-72
2023/04/02 18:05:00;;;;;;;;;;;15.50;99.60;;;;;;5052103;28;19917;-72
2023/04/02 18:07:39;;;;;;;;;;;15.50;99.60;;;;;;5052468;28;19913;-72
2023/04/02 18:10:19;;;;;;;;;;;15.50;99.60;;;;;;5082001;28;20364;-72
2023/04/02 18:13:01;;;;;;;;;;;15.50;99.60;;;;;;5064641;28;20000;-73
2023/04/02 18:15:43;;;;;;;;;;;15.50;99.60;;;;;;5050961;28;19924;-73
2023/04/02 18:18:10;;;;;;;;;;;15.50;99.60;;;;;;5040749;28;19912;-73
2023/04/02 18:20:55;;;;;;;;;;;15.50;99.60;;;;;;5053279;28;19933;-72
2023/04/02 18:23:45;;;;;;;;;;;15.50;99.60;;;;;;5051209;28;19920;-73
2023/04/02 18:26:14;;;;;;;;;;;15.60;99.60;;;;;;5046545;28;19909;-73
2023/04/02 18:28:48;;;;;;;;;;;15.50;99.60;;;;;;5050192;28;19913;-73
2023/04/02 18:31:15;;;;;;;;;;;15.60;99.70;;;;;;5081863;28;20028;-73
2023/04/02 18:34:04;;;;;;;;;;;15.60;99.70;;;;;;5050847;28;19945;-73
2023/04/02 18:36:55;;;;;;;;;;;15.60;99.70;;;;;;5049631;28;19908;-72
2023/04/02 18:39:21;;;;;;;;;;;15.70;99.70;;;;;;5025121;28;20323;-73
2023/04/02 18:42:14;;;;;;;;;;;15.70;99.70;;;;;;5049049;28;19925;-72
2023/04/02 18:44:48;;;;;;;;;;;15.70;99.70;;;;;;5043411;28;20335;-73
2023/04/02 18:47:15;;;;;;;;;;;15.70;99.70;;;;;;5051041;28;20368;-73
2023/04/02 18:49:43;;;;;;;;;;;15.70;99.70;;;;;;5052370;28;19936;-71
2023/04/02 18:52:13;;;;;;;;;;;15.70;99.70;;;;;;5081011;28;19917;-70
2023/04/02 18:54:43;;;;;;;;;;;15.70;99.70;;;;;;5082743;28;19920;-71
2023/04/02 18:57:11;;;;;;;;;;;15.70;99.70;;;;;;5050618;28;19913;-72
2023/04/02 18:59:55;;;;;;;;;;;15.70;99.70;;;;;;5084120;28;20279;-72
2023/04/02 19:02:34;;;;;;;;;;;15.70;99.70;;;;;;5050359;28;19921;-72
2023/04/02 19:05:05;;;;;;;;;;;15.70;99.70;;;;;;5050672;28;20427;-72
2023/04/02 19:07:33;;;;;;;;;;;15.70;99.70;;;;;;5083640;28;19920;-73
2023/04/02 19:10:03;;;;;;;;;;;15.70;99.70;;;;;;5065206;28;20007;-72
2023/04/02 19:12:32;;;;;;;;;;;15.70;99.70;;;;;;5075206;28;19952;-72
2023/04/02 19:14:59;;;;;;;;;;;15.70;99.70;;;;;;5046861;28;19920;-72
2023/04/02 19:17:26;;;;;;;;;;;15.70;99.70;;;;;;5049447;28;20023;-73
2023/04/02 19:20:04;;;;;;;;;;;15.70;99.70;;;;;;5043066;28;19919;-72
2023/04/02 19:22:34;;;;;;;;;;;15.70;99.70;;;;;;5048932;28;19920;-73
2023/04/02 19:25:19;;;;;;;;;;;15.70;99.70;;;;;;5052160;28;20003;-73
2023/04/02 19:27:56;;;;;;;;;;;15.70;99.70;;;;;;5050561;28;19919;-72
2023/04/02 19:30:23;;;;;;;;;;;15.70;99.70;;;;;;5062528;28;19954;-72
2023/04/02 19:32:56;;;;;;;;;;;15.70;99.70;;;;;;5070476;28;20298;-72
2023/04/02 19:35:26;;;;;;;;;;;15.70;99.70;;;;;;5070977;28;20301;-72
2023/04/02 19:37:59;;;;;;;;;;;15.70;99.70;;;;;;5071834;28;19969;-73
2023/04/02 19:40:28;;;;;;;;;;;15.70;99.70;;;;;;5071317;28;19912;-73
2023/04/02 19:42:57;;;;;;;;;;;15.70;99.70;;;;;;5046072;28;20047;-73
2023/04/02 19:45:42;;;;;;;;;;;15.70;99.70;;;;;;5072350;28;19939;-73
2023/04/02 19:48:18;;;;;;;;;;;15.70;99.70;;;;;;5072123;28;19905;-73
2023/04/02 19:50:45;;;;;;;;;;;15.80;99.70;;;;;;5072225;28;20002;-72
2023/04/02 19:53:12;;;;;;;;;;;15.70;99.70;;;;;;5070780;28;19913;-72
2023/04/02 19:55:39;;;;;;;;;;;15.80;99.70;;;;;;5072091;28;20259;-73
2023/04/02 19:58:06;;;;;;;;;;;15.80;99.70;;;;;;5070787;28;19908;-73
2023/04/02 20:00:33;;;;;;;;;;;15.70;99.70;;;;;;5053817;28;19913;-71
2023/04/02 20:03:00;;;;;;;;;;;15.70;99.70;;;;;;5072037;28;20320;-72
2023/04/02 20:05:26;;;;;;;;;;;15.80;99.70;;;;;;5071909;28;19920;-72
2023/04/02 20:07:53;;;;;;;;;;;15.80;99.70;;;;;;5072359;28;19995;-71
2023/04/02 20:10:20;;;;;;;;;;;15.80;99.70;;;;;;5075686;28;20380;-72
2023/04/02 20:12:47;;;;;;;;;;;15.80;99.70;;;;;;5075332;28;19917;-71
2023/04/02 20:15:14;;;;;;;;;;;15.70;99.70;;;;;;5072928;28;20369;-72
2023/04/02 20:17:41;;;;;;;;;;;15.70;99.70;;;;;;5074745;28;19913;-72
2023/04/02 20:20:09;;;;;;;;;;;15.70;99.70;;;;;;5056934;28;19919;-72
2023/04/02 20:22:36;;;;;;;;;;;15.70;99.70;;;;;;5073239;28;19924;-72
2023/04/02 20:25:06;;;;;;;;;;;15.70;99.70;;;;;;5073153;28;19916;-72
2023/04/02 20:27:32;;;;;;;;;;;15.80;99.70;;;;;;5074439;28;19912;-72
2023/04/02 20:29:59;;;;;;;;;;;15.80;99.70;;;;;;5073910;28;20378;-72
2023/04/02 20:32:26;;;;;;;;;;;15.80;99.70;;;;;;5074107;28;19921;-72
2023/04/02 20:34:53;;;;;;;;;;;15.80;99.70;;;;;;5074835;28;19955;-72
2023/04/02 20:37:20;;;;;;;;;;;15.80;99.70;;;;;;5073833;28;19919;-72
2023/04/02 20:39:47;;;;;;;;;;;15.80;99.70;;;;;;5072686;28;19922;-71
2023/04/02 20:42:13;;;;;;;;;;;15.80;99.70;;;;;;5073271;28;19924;-71
2023/04/02 20:44:40;;;;;;;;;;;15.80;99.70;;;;;;5055708;28;19924;-72
2023/04/02 20:47:07;;;;;;;;;;;15.80;99.70;;;;;;5072932;28;19923;-72
2023/04/02 20:49:34;;;;;;;;;;;15.80;99.70;;;;;;5074355;28;19943;-72
2023/04/02 20:52:01;;;;;;;;;;;15.80;99.70;;;;;;5051750;28;19913;-72
2023/04/02 20:54:27;;;;;;;;;;;15.90;99.70;;;;;;5068008;28;19912;-72
2023/04/02 20:56:54;;;;;;;;;;;15.90;99.70;;;;;;5073621;28;19912;-72
2023/04/02 20:59:21;;;;;;;;;;;15.90;99.70;;;;;;5071645;28;20247;-71
2023/04/02 21:01:48;;;;;;;;;;;15.90;99.70;;;;;;5072768;28;20050;-71
2023/04/02 21:04:14;;;;;;;;;;;16.00;99.80;;;;;;5072492;28;19909;-72
2023/04/02 21:06:41;;;;;;;;;;;16.00;99.70;;;;;;5059049;28;20007;-72
2023/04/02 21:09:11;;;;;;;;;;;16.00;99.70;;;;;;5063762;28;19908;-72
2023/04/02 21:11:38;;;;;;;;;;;16.00;99.70;;;;;;5072200;28;20374;-72
2023/04/02 21:14:05;;;;;;;;;;;16.10;99.70;;;;;;5070600;28;19912;-72
2023/04/02 21:16:32;;;;;;;;;;;16.10;99.70;;;;;;5054469;28;19974;-72
2023/04/02 21:19:06;;;;;;;;;;;16.00;99.80;;;;;;5044039;28;20006;-72
2023/04/02 21:21:33;;;;;;;;;;;16.10;99.80;;;;;;5047652;28;19921;-74
2023/04/02 21:24:00;;;;;;;;;;;16.10;99.70;;;;;;5040927;28;19935;-73
2023/04/02 21:26:27;;;;;;;;;;;16.10;99.70;;;;;;5048667;28;19924;-73
2023/04/02 21:28:54;;;;;;;;;;;16.20;99.80;;;;;;5052679;28;19944;-73
2023/04/02 21:31:24;;;;;;;;;;;16.20;99.80;;;;;;5071391;28;19951;-73
2023/04/02 21:33:52;;;;;;;;;;;16.30;99.80;;;;;;5042673;28;19955;-73
2023/04/02 21:36:22;;;;;;;;;;;16.30;99.80;;;;;;5073815;28;19909;-73
2023/04/02 21:38:50;;;;;;;;;;;16.30;99.80;;;;;;5073870;28;19915;-72
2023/04/02 21:41:18;;;;;;;;;;;16.40;99.80;;;;;;5073234;28;20382;-72
2023/04/02 21:43:47;;;;;;;;;;;16.40;99.80;;;;;;5068691;22;20015;-71
2023/04/02 21:46:18;;;;;;;;;;;16.50;99.80;;;;;;5073619;28;19955;-71
2023/04/02 21:48:45;;;;;;;;;;;16.50;99.80;;;;;;5072983;28;19909;-71
2023/04/02 21:51:12;;;;;;;;;;;16.60;99.80;;;;;;5072105;28;19955;-71
2023/04/02 21:53:39;;;;;;;;;;;16.60;99.80;;;;;;5069627;28;20278;-71
2023/04/02 21:56:07;;;;;;;;;;;16.70;99.80;;;;;;5072411;28;19909;-71
2023/04/02 21:58:34;;;;;;;;;;;16.70;99.80;;;;;;5072336;28;20006;-71
2023/04/02 22:01:00;;;;;;;;;;;16.70;99.80;;;;;;5073821;28;20438;-71
2023/04/02 22:03:28;;;;;;;;;;;16.70;99.80;;;;;;5070926;28;19912;-71
2023/04/02 22:06:01;;;;;;;;;;;16.70;99.80;;;;;;5073259;28;19912;-71
2023/04/02 22:08:28;;;;;;;;;;;16.70;99.80;;;;;;5073188;28;20041;-72
2023/04/02 22:10:55;;;;;;;;;;;16.70;99.80;;;;;;5073247;28;19977;-72
2023/04/02 22:13:22;;;;;;;;;;;16.70;99.80;;;;;;5063883;28;19913;-72
2023/04/02 22:15:48;;;;;;;;;;;16.80;99.80;;;;;;5053204;28;19983;-72
2023/04/02 22:18:15;;;;;;;;;;;16.80;99.80;;;;;;5053089;28;19932;-72
2023/04/02 22:20:42;;;;;;;;;;;16.80;99.80;;;;;;5053251;28;19916;-72
2023/04/02 22:23:09;;;;;;;;;;;16.80;99.80;;;;;;5053527;28;19916;-72
2023/04/02 22:25:36;;;;;;;;;;;16.90;99.80;;;;;;5053211;28;19913;-72
2023/04/02 22:28:03;;;;;;;;;;;16.90;99.80;;;;;;5053464;28;20348;-72
2023/04/02 22:30:30;;;;;;;;;;;17.00;99.80;;;;;;5053021;28;19909;-72
2023/04/02 22:32:57;;;;;;;;;;;17.00;99.80;;;;;;5052836;28;19924;-72
2023/04/02 22:35:23;;;;;;;;;;;17.00;99.80;;;;;;5053040;28;19917;-73
2023/04/02 22:37:50;;;;;;;;;;;17.00;99.80;;;;;;5053006;28;20016;-73
2023/04/02 22:40:17;;;;;;;;;;;17.00;99.80;;;;;;5052936;28;20023;-73
